Time;durP1;ratioP1;P1;durP2;ratioP2;P2;SDS_P1;SDS_P2;PMS_P1;PMS_P2;Temp;Humidity;BMP_temperature;BMP_pressure;BME280_temperature;BME280_humidity;BME280_pressure;Samples;Min_cycle;Max_cycle;Signal;HPM_P1;HPM_P2
2023/06/12 00:00:51;;;;;;;7.65;7.25;;;;;;;;;;5058195;28;20025;-20
2023/06/12 00:03:18;;;;;;;9.02;8.52;;;;;;;;;;5057688;28;20111;-19
2023/06/12 00:05:44;;;;;;;9.55;9.00;;;;;;;;;;5057867;28;20388;-23
2023/06/12 00:08:11;;;;;;;8.68;8.18;;;;;;;;;;5057837;28;20444;-23
2023/06/12 00:10:39;;;;;;;9.20;8.70;;;;;;;;;;5058028;28;20029;-22
2023/06/12 00:13:05;;;;;;;9.25;8.65;;;;;;;;;;5057718;28;20452;-20
2023/06/12 00:15:31;;;;;;;9.52;9.02;;;;;;;;;;5057670;28;20037;-21
2023/06/12 00:17:58;;;;;;;9.20;8.70;;;;;;;;;;5057673;28;20025;-20
2023/06/12 00:20:24;;;;;;;8.80;8.30;;;;;;;;;;5057819;28;20021;-21
2023/06/12 00:22:50;;;;;;;8.18;7.68;;;;;;;;;;5057488;28;20025;-19
2023/06/12 00:25:16;;;;;;;9.18;8.68;;;;;;;;;;5057797;28;20033;-18
2023/06/12 00:27:42;;;;;;;9.20;8.70;;;;;;;;;;5057770;28;20100;-18
2023/06/12 00:30:09;;;;;;;10.40;9.80;;;;;;;;;;5057471;28;20028;-19
2023/06/12 00:32:35;;;;;;;9.90;9.32;;;;;;;;;;5057310;28;20086;-23
2023/06/12 00:35:02;;;;;;;10.30;9.70;;;;;;;;;;5057687;28;20100;-19
2023/06/12 00:37:29;;;;;;;9.80;9.20;;;;;;;;;;5057249;28;20104;-23
2023/06/12 00:39:55;;;;;;;9.95;9.35;;;;;;;;;;5056500;28;20459;-21
2023/06/12 00:42:22;;;;;;;9.95;9.35;;;;;;;;;;5056819;28;20020;-21
2023/06/12 00:44:48;;;;;;;9.18;8.68;;;;;;;;;;5057382;28;20092;-21
2023/06/12 00:47:14;;;;;;;9.63;9.07;;;;;;;;;;5057679;28;20021;-19
2023/06/12 00:49:42;;;;;;;9.00;8.50;;;;;;;;;;5057048;28;20067;-21
2023/06/12 00:52:11;;;;;;;9.38;8.88;;;;;;;;;;5056892;28;20104;-20
2023/06/12 00:54:38;;;;;;;9.30;8.80;;;;;;;;;;5057168;28;20103;-19
2023/06/12 00:57:07;;;;;;;9.68;9.07;;;;;;;;;;5056958;28;20468;-20
2023/06/12 00:59:33;;;;;;;9.80;9.20;;;;;;;;;;5057038;28;20040;-19
2023/06/12 01:02:01;;;;;;;9.02;8.52;;;;;;;;;;5056782;28;20035;-19
2023/06/12 01:04:28;;;;;;;8.88;8.38;;;;;;;;;;5056641;28;20099;-20
2023/06/12 01:07:20;;;;;;;10.27;9.68;;;;;;;;;;5057021;28;20329;-20
2023/06/12 01:09:54;;;;;;;9.38;8.88;;;;;;;;;;5029708;28;20056;-20
2023/06/12 01:12:21;;;;;;;9.57;9.05;;;;;;;;;;5056834;28;20078;-23
2023/06/12 01:14:47;;;;;;;10.10;9.50;;;;;;;;;;5057141;28;20102;-21
2023/06/12 01:17:13;;;;;;;9.10;8.60;;;;;;;;;;5056805;28;20025;-21
2023/06/12 01:19:41;;;;;;;8.73;8.23;;;;;;;;;;5056427;28;20025;-22
2023/06/12 01:22:10;;;;;;;10.25;9.65;;;;;;;;;;5056351;28;20021;-20
2023/06/12 01:24:36;;;;;;;9.23;8.63;;;;;;;;;;5056719;28;20021;-19
2023/06/12 01:27:03;;;;;;;9.38;8.88;;;;;;;;;;5056637;28;20025;-19
2023/06/12 01:29:32;;;;;;;9.55;8.95;;;;;;;;;;5056322;28;20056;-19
2023/06/12 01:32:01;;;;;;;10.30;9.70;;;;;;;;;;5056238;28;20156;-19
2023/06/12 01:34:31;;;;;;;10.30;9.70;;;;;;;;;;5056434;28;20052;-22
2023/06/12 01:37:05;;;;;;;10.48;9.88;;;;;;;;;;5056451;28;20107;-17
2023/06/12 01:39:41;;;;;;;8.43;7.93;;;;;;;;;;5056028;28;20029;-21
2023/06/12 01:42:08;;;;;;;9.43;8.93;;;;;;;;;;5056328;28;20328;-25
2023/06/12 01:44:34;;;;;;;9.30;8.80;;;;;;;;;;5056007;28;20021;-23
2023/06/12 01:47:00;;;;;;;9.75;9.18;;;;;;;;;;5056581;28;20100;-19
2023/06/12 01:49:27;;;;;;;9.77;9.18;;;;;;;;;;5056177;28;20048;-19
2023/06/12 01:51:53;;;;;;;9.73;9.13;;;;;;;;;;5055462;28;20028;-20
2023/06/12 01:54:22;;;;;;;9.18;8.68;;;;;;;;;;5056110;28;20286;-19
2023/06/12 01:56:49;;;;;;;9.02;8.52;;;;;;;;;;5056028;28;20086;-19
2023/06/12 01:59:15;;;;;;;9.30;8.80;;;;;;;;;;5055943;28;20033;-19
2023/06/12 02:01:42;;;;;;;9.77;9.18;;;;;;;;;;5055717;28;20052;-19
2023/06/12 02:04:08;;;;;;;9.02;8.52;;;;;;;;;;5055415;28;20045;-19
2023/06/12 02:06:34;;;;;;;9.38;8.85;;;;;;;;;;5056145;28;20032;-18
2023/06/12 02:09:00;;;;;;;9.77;9.18;;;;;;;;;;5055874;28;20029;-22
2023/06/12 02:11:26;;;;;;;9.48;8.88;;;;;;;;;;5055807;28;20492;-21
2023/06/12 02:13:52;;;;;;;9.20;8.70;;;;;;;;;;5055378;28;20082;-21
2023/06/12 02:16:21;;;;;;;10.35;9.75;;;;;;;;;;5055723;28;20032;-20
2023/06/12 02:18:47;;;;;;;9.73;9.13;;;;;;;;;;5055840;28;20029;-23
2023/06/12 02:21:13;;;;;;;9.30;8.70;;;;;;;;;;5055317;28;20021;-22
2023/06/12 02:23:41;;;;;;;9.52;8.93;;;;;;;;;;5055451;28;20432;-21
2023/06/12 02:26:07;;;;;;;9.57;9.07;;;;;;;;;;5055178;28;20025;-22
2023/06/12 02:28:33;;;;;;;9.07;8.57;;;;;;;;;;5055206;28;20013;-22
2023/06/12 02:31:00;;;;;;;9.38;8.88;;;;;;;;;;5055140;28;20021;-18
2023/06/12 02:33:27;;;;;;;9.27;8.75;;;;;;;;;;5055290;28;20017;-18
2023/06/12 02:35:53;;;;;;;9.95;9.38;;;;;;;;;;5055659;28;20040;-21
2023/06/12 02:38:19;;;;;;;8.60;8.10;;;;;;;;;;5055496;28;20092;-18
2023/06/12 02:40:45;;;;;;;9.68;9.07;;;;;;;;;;5055002;28;20029;-18
2023/06/12 02:43:11;;;;;;;9.80;9.20;;;;;;;;;;5054880;28;20079;-19
2023/06/12 02:45:37;;;;;;;8.68;8.18;;;;;;;;;;5054875;28;20096;-22
2023/06/12 02:48:04;;;;;;;9.50;9.00;;;;;;;;;;5037476;28;20017;-21
2023/06/12 02:50:30;;;;;;;9.07;8.57;;;;;;;;;;5055362;28;20044;-23
2023/06/12 02:52:56;;;;;;;8.73;8.23;;;;;;;;;;5055019;28;20078;-20
2023/06/12 02:55:22;;;;;;;8.60;8.10;;;;;;;;;;5054776;28;20024;-19
2023/06/12 02:57:48;;;;;;;9.23;8.73;;;;;;;;;;5054601;28;20041;-19
2023/06/12 03:00:14;;;;;;;8.63;8.13;;;;;;;;;;5054913;28;20357;-19
2023/06/12 03:02:42;;;;;;;9.15;8.57;;;;;;;;;;5054435;28;20029;-19
2023/06/12 03:05:14;;;;;;;8.40;7.90;;;;;;;;;;5054298;28;20033;-20
2023/06/12 03:07:41;;;;;;;8.75;8.25;;;;;;;;;;5055112;28;20104;-18
2023/06/12 03:10:08;;;;;;;9.32;8.82;;;;;;;;;;5054822;28;20462;-19
2023/06/12 03:12:34;;;;;;;8.82;8.32;;;;;;;;;;5054499;28;20330;-18
2023/06/12 03:15:01;;;;;;;9.10;8.60;;;;;;;;;;5054456;28;20036;-19
2023/06/12 03:17:27;;;;;;;8.27;7.78;;;;;;;;;;5054503;28;20021;-21
2023/06/12 03:19:53;;;;;;;7.80;7.40;;;;;;;;;;5054424;28;20385;-20
2023/06/12 03:22:19;;;;;;;8.70;8.20;;;;;;;;;;5054385;28;20107;-18
2023/06/12 03:24:46;;;;;;;9.00;8.25;;;;;;;;;;5036918;28;20021;-19
2023/06/12 03:27:13;;;;;;;8.50;8.00;;;;;;;;;;5054690;28;20354;-17
2023/06/12 03:29:40;;;;;;;8.27;7.82;;;;;;;;;;5054327;28;20025;-21
2023/06/12 03:32:06;;;;;;;9.57;8.98;;;;;;;;;;5054302;28;20083;-19
2023/06/12 03:34:32;;;;;;;8.95;8.40;;;;;;;;;;5054847;28;20086;-21
2023/06/12 03:36:59;;;;;;;8.88;8.38;;;;;;;;;;5054278;28;20033;-19
2023/06/12 03:39:25;;;;;;;8.85;8.30;;;;;;;;;;5036686;28;20356;-18
2023/06/12 03:41:53;;;;;;;8.65;8.15;;;;;;;;;;5054112;28;20025;-19
2023/06/12 03:44:19;;;;;;;8.32;7.82;;;;;;;;;;5054114;28;20432;-19
2023/06/12 03:46:46;;;;;;;8.40;7.90;;;;;;;;;;5054146;28;20033;-17
2023/06/12 03:49:12;;;;;;;9.05;8.52;;;;;;;;;;5054178;28;20029;-20
2023/06/12 03:51:38;;;;;;;8.32;7.82;;;;;;;;;;5054113;28;20025;-19
2023/06/12 03:54:05;;;;;;;9.30;8.70;;;;;;;;;;5054191;28;20348;-21
2023/06/12 03:56:31;;;;;;;7.70;7.22;;;;;;;;;;5054032;28;20352;-20
2023/06/12 03:58:57;;;;;;;8.82;8.32;;;;;;;;;;5053890;28;20101;-22
2023/06/12 04:01:23;;;;;;;7.95;7.45;;;;;;;;;;5053888;28;20461;-21
2023/06/12 04:03:49;;;;;;;8.63;8.13;;;;;;;;;;5053611;28;20128;-23
2023/06/12 04:06:15;;;;;;;8.20;7.70;;;;;;;;;;5054443;28;20100;-18
2023/06/12 04:08:44;;;;;;;8.60;8.10;;;;;;;;;;5054146;28;20412;-21
2023/06/12 04:11:14;;;;;;;8.25;7.75;;;;;;;;;;5053446;28;20017;-19
2023/06/12 04:13:40;;;;;;;8.40;7.90;;;;;;;;;;5053692;28;20100;-21
2023/06/12 04:16:06;;;;;;;7.72;7.32;;;;;;;;;;5038907;28;20144;-20
2023/06/12 04:18:32;;;;;;;8.60;8.10;;;;;;;;;;5057822;28;20056;-20
2023/06/12 04:21:00;;;;;;;8.32;7.63;;;;;;;;;;5057151;28;20056;-21
2023/06/12 04:23:30;;;;;;;8.70;8.10;;;;;;;;;;5057177;28;20078;-20
2023/06/12 04:26:04;;;;;;;8.30;7.80;;;;;;;;;;5057548;28;20056;-20
2023/06/12 04:28:34;;;;;;;7.55;7.05;;;;;;;;;;5057640;28;20021;-21
2023/06/12 04:31:00;;;;;;;8.43;7.93;;;;;;;;;;5057310;28;20021;-17
2023/06/12 04:33:32;;;;;;;8.25;7.75;;;;;;;;;;5039556;28;20340;-22
2023/06/12 04:36:01;;;;;;;7.63;7.13;;;;;;;;;;5057181;28;20032;-19
2023/06/12 04:38:30;;;;;;;8.60;8.00;;;;;;;;;;5057276;28;20024;-26
2023/06/12 04:40:58;;;;;;;7.75;7.25;;;;;;;;;;5057384;28;20043;-31
2023/06/12 04:43:24;;;;;;;8.15;7.65;;;;;;;;;;5056813;28;20028;-18
2023/06/12 04:45:51;;;;;;;8.07;7.57;;;;;;;;;;5057063;28;20096;-21
2023/06/12 04:48:18;;;;;;;7.50;7.10;;;;;;;;;;5039040;28;20032;-23
2023/06/12 04:50:44;;;;;;;7.95;7.45;;;;;;;;;;5056729;28;20029;-19
2023/06/12 04:53:12;;;;;;;7.72;7.25;;;;;;;;;;5056834;28;20028;-23
2023/06/12 04:55:40;;;;;;;8.38;7.78;;;;;;;;;;5056439;28;20036;-20
2023/06/12 04:58:07;;;;;;;9.65;7.90;;;;;;;;;;5056484;28;20044;-18
2023/06/12 05:00:33;;;;;;;7.88;7.18;;;;;;;;;;5056309;28;20028;-20
2023/06/12 05:02:59;;;;;;;9.02;8.43;;;;;;;;;;5056170;28;20049;-20
2023/06/12 05:05:27;;;;;;;9.57;7.97;;;;;;;;;;5056309;28;20021;-19
2023/06/12 05:07:54;;;;;;;7.50;6.82;;;;;;;;;;5056316;28;20013;-20
2023/06/12 05:10:20;;;;;;;8.43;7.82;;;;;;;;;;5056423;28;20618;-19
2023/06/12 05:12:47;;;;;;;8.25;7.63;;;;;;;;;;5038620;28;20033;-18
2023/06/12 05:15:13;;;;;;;8.13;7.40;;;;;;;;;;5056294;28;20456;-20
2023/06/12 05:17:39;;;;;;;8.05;7.35;;;;;;;;;;5038742;28;20039;-17
2023/06/12 05:20:09;;;;;;;8.10;7.47;;;;;;;;;;5056065;28;20056;-20
2023/06/12 05:22:36;;;;;;;7.70;7.18;;;;;;;;;;5055817;28;20029;-18
2023/06/12 05:25:03;;;;;;;8.13;7.40;;;;;;;;;;5055890;28;20096;-19
2023/06/12 05:27:29;;;;;;;8.05;7.45;;;;;;;;;;5054917;28;20029;-19
2023/06/12 05:29:56;;;;;;;7.75;7.05;;;;;;;;;;5056063;28;20032;-19
2023/06/12 05:32:22;;;;;;;13.20;7.10;;;;;;;;;;5055850;28;20079;-21
2023/06/12 05:34:48;;;;;;;8.48;7.10;;;;;;;;;;5056022;28;20069;-20
2023/06/12 05:37:14;;;;;;;9.43;7.80;;;;;;;;;;5055803;28;20033;-20
2023/06/12 05:39:40;;;;;;;9.20;8.38;;;;;;;;;;5055777;28;20076;-22
2023/06/12 05:42:07;;;;;;;9.38;7.40;;;;;;;;;;5056102;28;20048;-24
2023/06/12 05:44:33;;;;;;;8.38;7.57;;;;;;;;;;5038208;28;20036;-21
2023/06/12 05:46:59;;;;;;;8.80;7.95;;;;;;;;;;5055520;28;20332;-19
2023/06/12 05:49:25;;;;;;;10.68;8.00;;;;;;;;;;5055618;28;20044;-18
2023/06/12 05:51:51;;;;;;;11.18;7.10;;;;;;;;;;5055650;28;20174;-19
2023/06/12 05:54:17;;;;;;;8.00;7.45;;;;;;;;;;5055500;28;20021;-22
2023/06/12 05:56:44;;;;;;;11.52;7.30;;;;;;;;;;5055537;28;20025;-20
2023/06/12 05:59:10;;;;;;;7.97;7.28;;;;;;;;;;5037878;28;20039;-20
2023/06/12 06:04:12;;;;;;;8.63;7.57;;;;;;;;;;5053040;28;20049;-21
2023/06/12 06:06:39;;;;;;;13.50;7.93;;;;;;;;;;5055542;28;20021;-22
2023/06/12 06:09:06;;;;;;;10.05;7.00;;;;;;;;;;5055779;28;20086;-22
2023/06/12 06:11:32;;;;;;;8.93;8.23;;;;;;;;;;5056044;28;20029;-22
2023/06/12 06:13:58;;;;;;;8.48;7.65;;;;;;;;;;5055421;28;20025;-23
2023/06/12 06:16:25;;;;;;;7.93;7.43;;;;;;;;;;5055394;28;20040;-23
2023/06/12 06:18:51;;;;;;;7.45;6.80;;;;;;;;;;5055216;28;20020;-23
2023/06/12 06:21:17;;;;;;;8.23;7.35;;;;;;;;;;5055257;28;20094;-24
2023/06/12 06:23:43;;;;;;;10.90;7.30;;;;;;;;;;5037719;28;20104;-22
2023/06/12 06:26:10;;;;;;;7.80;7.20;;;;;;;;;;5055549;28;20359;-22
2023/06/12 06:28:36;;;;;;;11.38;7.32;;;;;;;;;;5055683;28;20025;-22
2023/06/12 06:31:12;;;;;;;8.40;7.07;;;;;;;;;;5055161;28;20223;-22
2023/06/12 06:33:38;;;;;;;14.93;7.35;;;;;;;;;;5055419;28;20348;-23
2023/06/12 06:36:05;;;;;;;9.10;8.40;;;;;;;;;;5055017;28;20141;-23
2023/06/12 06:38:31;;;;;;;8.40;7.70;;;;;;;;;;5054646;28;20123;-23
2023/06/12 06:40:59;;;;;;;7.85;7.25;;;;;;;;;;5055028;28;20068;-22
2023/06/12 06:43:25;;;;;;;9.57;7.38;;;;;;;;;;5054646;28;20025;-23
2023/06/12 06:45:51;;;;;;;12.95;7.65;;;;;;;;;;5054972;28;20420;-23
2023/06/12 06:48:17;;;;;;;7.45;6.90;;;;;;;;;;5054853;28;20448;-24
2023/06/12 06:50:44;;;;;;;7.88;7.28;;;;;;;;;;5054919;28;20104;-22
2023/06/12 06:53:10;;;;;;;8.10;7.55;;;;;;;;;;5054458;28;20459;-22
2023/06/12 06:55:37;;;;;;;8.05;7.45;;;;;;;;;;5036942;28;20033;-22
2023/06/12 06:58:04;;;;;;;10.98;7.57;;;;;;;;;;5054957;28;20028;-24
2023/06/12 07:00:30;;;;;;;8.32;7.53;;;;;;;;;;5054579;28;20047;-23
2023/06/12 07:02:56;;;;;;;8.15;7.50;;;;;;;;;;5054087;28;20056;-23
2023/06/12 07:05:23;;;;;;;7.55;6.97;;;;;;;;;;5036956;28;20099;-24
2023/06/12 07:07:50;;;;;;;12.65;7.85;;;;;;;;;;5054757;28;20418;-24
2023/06/12 07:10:16;;;;;;;8.02;7.25;;;;;;;;;;5036800;28;20069;-22
2023/06/12 07:12:42;;;;;;;9.38;7.50;;;;;;;;;;5054264;28;20047;-22
2023/06/12 07:15:09;;;;;;;7.38;6.85;;;;;;;;;;5054302;28;20024;-22
2023/06/12 07:17:35;;;;;;;8.52;7.65;;;;;;;;;;5054634;28;20033;-23
2023/06/12 07:20:03;;;;;;;8.43;7.53;;;;;;;;;;5054065;28;20100;-22
2023/06/12 07:22:30;;;;;;;12.77;7.00;;;;;;;;;;5054029;28;20024;-23
2023/06/12 07:24:56;;;;;;;7.40;6.80;;;;;;;;;;5054728;28;20036;-22
2023/06/12 07:27:23;;;;;;;14.80;7.22;;;;;;;;;;5054352;28;20021;-22
2023/06/12 07:29:49;;;;;;;8.38;7.55;;;;;;;;;;5054532;28;20092;-21
2023/06/12 07:32:15;;;;;;;7.47;6.88;;;;;;;;;;5054099;28;20033;-23
2023/06/12 07:34:41;;;;;;;13.98;7.85;;;;;;;;;;5054180;28;20029;-23
2023/06/12 07:37:07;;;;;;;8.73;8.02;;;;;;;;;;5054500;28;20021;-22
2023/06/12 07:39:34;;;;;;;14.45;7.65;;;;;;;;;;5054299;28;20017;-23
2023/06/12 07:42:00;;;;;;;8.02;7.40;;;;;;;;;;5053980;28;20108;-22
2023/06/12 07:44:26;;;;;;;7.18;6.60;;;;;;;;;;5054202;28;20455;-23
2023/06/12 07:46:52;;;;;;;7.53;6.97;;;;;;;;;;5054325;28;20029;-21
2023/06/12 07:49:18;;;;;;;12.68;8.00;;;;;;;;;;5054084;28;20021;-23
2023/06/12 07:51:45;;;;;;;8.32;7.63;;;;;;;;;;5058358;28;20051;-22
2023/06/12 07:54:12;;;;;;;8.15;7.32;;;;;;;;;;5058722;28;20029;-22
2023/06/12 07:56:39;;;;;;;8.20;6.97;;;;;;;;;;5058489;28;20021;-22
2023/06/12 07:59:09;;;;;;;11.60;8.27;;;;;;;;;;5023984;28;20037;-23
2023/06/12 08:01:36;;;;;;;8.57;7.75;;;;;;;;;;5057980;28;20017;-23
2023/06/12 08:04:03;;;;;;;9.50;7.00;;;;;;;;;;5057794;28;20048;-22
2023/06/12 08:06:33;;;;;;;9.40;8.40;;;;;;;;;;5057799;28;20483;-22
2023/06/12 08:09:00;;;;;;;8.20;7.30;;;;;;;;;;5057677;28;20566;-25
2023/06/12 08:11:26;;;;;;;12.57;7.47;;;;;;;;;;5057801;28;20025;-24
2023/06/12 08:13:52;;;;;;;9.32;7.70;;;;;;;;;;5057744;28;20029;-22
2023/06/12 08:16:18;;;;;;;14.57;7.53;;;;;;;;;;5057732;28;20032;-23
2023/06/12 08:18:45;;;;;;;8.15;7.28;;;;;;;;;;5039947;28;20423;-21
2023/06/12 08:21:11;;;;;;;7.60;6.60;;;;;;;;;;5057557;28;20051;-22
2023/06/12 08:23:37;;;;;;;7.88;7.13;;;;;;;;;;5057432;28;20029;-22
2023/06/12 08:26:04;;;;;;;11.95;8.05;;;;;;;;;;5057886;28;20025;-24
2023/06/12 08:28:30;;;;;;;10.07;9.07;;;;;;;;;;5057743;28;20350;-22
2023/06/12 08:30:57;;;;;;;16.85;7.90;;;;;;;;;;5057429;28;20045;-22
2023/06/12 08:33:24;;;;;;;11.07;6.28;;;;;;;;;;5057585;28;20112;-23
2023/06/12 08:35:50;;;;;;;10.10;7.72;;;;;;;;;;5057558;28;20452;-22
2023/06/12 08:38:16;;;;;;;11.02;7.43;;;;;;;;;;5057206;28;20048;-24
2023/06/12 08:40:43;;;;;;;9.90;7.68;;;;;;;;;;5057178;28;20091;-22
2023/06/12 08:43:10;;;;;;;8.95;8.05;;;;;;;;;;5040074;28;20034;-23
2023/06/12 08:45:38;;;;;;;8.02;7.22;;;;;;;;;;5057521;28;20021;-22
2023/06/12 08:48:05;;;;;;;10.10;8.18;;;;;;;;;;5057314;28;20146;-23
2023/06/12 08:50:32;;;;;;;10.57;7.75;;;;;;;;;;5057348;28;20021;-23
2023/06/12 08:52:58;;;;;;;9.02;8.18;;;;;;;;;;5057214;28;20060;-22
2023/06/12 08:55:25;;;;;;;12.73;7.50;;;;;;;;;;5057695;28;20047;-22
2023/06/12 08:57:51;;;;;;;14.82;7.72;;;;;;;;;;5056849;28;20032;-22
2023/06/12 09:00:17;;;;;;;12.20;7.63;;;;;;;;;;5057325;28;20087;-23
2023/06/12 09:02:47;;;;;;;11.90;8.00;;;;;;;;;;5055285;28;20053;-23
2023/06/12 09:05:29;;;;;;;10.95;8.43;;;;;;;;;;5056752;28;20109;-22
2023/06/12 09:08:00;;;;;;;8.00;7.45;;;;;;;;;;5056681;28;20104;-22
2023/06/12 09:10:26;;;;;;;11.20;8.18;;;;;;;;;;5056660;28;20112;-23
2023/06/12 09:12:56;;;;;;;11.38;8.38;;;;;;;;;;5056502;28;20037;-22
2023/06/12 09:15:22;;;;;;;8.85;8.20;;;;;;;;;;5056476;28;20036;-23
2023/06/12 09:17:49;;;;;;;10.43;7.78;;;;;;;;;;5038986;28;20029;-21
2023/06/12 09:20:17;;;;;;;10.10;7.93;;;;;;;;;;5056710;28;20120;-24
2023/06/12 09:22:44;;;;;;;18.50;7.82;;;;;;;;;;5056388;28;20021;-24
2023/06/12 09:25:10;;;;;;;13.32;8.32;;;;;;;;;;5056189;28;20028;-23
2023/06/12 09:27:43;;;;;;;12.00;7.10;;;;;;;;;;5056169;28;20017;-23
2023/06/12 09:30:10;;;;;;;10.73;8.55;;;;;;;;;;5056481;28;20457;-22
2023/06/12 09:32:36;;;;;;;8.32;7.57;;;;;;;;;;5056377;28;20333;-23
2023/06/12 09:35:02;;;;;;;8.95;7.20;;;;;;;;;;5056329;28;20021;-23
2023/06/12 09:37:28;;;;;;;13.93;7.78;;;;;;;;;;5056042;28;20025;-24
2023/06/12 09:40:14;;;;;;;16.90;7.68;;;;;;;;;;5056217;28;20463;-22
2023/06/12 09:42:41;;;;;;;11.30;8.10;;;;;;;;;;5056068;28;20033;-22
2023/06/12 09:45:14;;;;;;;11.63;8.23;;;;;;;;;;5056509;28;20025;-23
2023/06/12 09:47:45;;;;;;;19.60;7.55;;;;;;;;;;5056079;28;20036;-26
2023/06/12 09:50:12;;;;;;;21.50;8.95;;;;;;;;;;5056590;28;20025;-22
2023/06/12 09:52:40;;;;;;;14.10;8.07;;;;;;;;;;5056014;28;20394;-24
2023/06/12 09:55:07;;;;;;;10.35;8.68;;;;;;;;;;5055859;28;20028;-23
2023/06/12 09:57:38;;;;;;;8.68;7.75;;;;;;;;;;5055616;28;20025;-22
2023/06/12 10:00:09;;;;;;;11.07;8.00;;;;;;;;;;5055737;28;20033;-22
2023/06/12 10:02:36;;;;;;;18.40;8.32;;;;;;;;;;5038429;28;20080;-23
2023/06/12 10:05:04;;;;;;;12.32;8.27;;;;;;;;;;5055604;28;20086;-22
2023/06/12 10:07:33;;;;;;;17.30;9.38;;;;;;;;;;5055578;28;20025;-23
2023/06/12 10:10:07;;;;;;;10.07;8.48;;;;;;;;;;5037903;28;20032;-23
2023/06/12 10:12:33;;;;;;;11.98;9.07;;;;;;;;;;5055085;28;20029;-23
2023/06/12 10:15:01;;;;;;;15.20;8.60;;;;;;;;;;5055815;28;20073;-23
2023/06/12 10:17:28;;;;;;;9.48;8.57;;;;;;;;;;5055359;28;20351;-22
2023/06/12 10:19:55;;;;;;;9.38;8.10;;;;;;;;;;5055389;28;20122;-23
2023/06/12 10:22:21;;;;;;;9.32;7.72;;;;;;;;;;5055319;28;20032;-24
2023/06/12 10:24:47;;;;;;;11.13;8.98;;;;;;;;;;5055245;28;20036;-23
2023/06/12 10:27:15;;;;;;;9.25;8.13;;;;;;;;;;5055187;28;20025;-23
2023/06/12 10:29:42;;;;;;;12.32;9.10;;;;;;;;;;5055359;28;20090;-23
2023/06/12 10:32:15;;;;;;;10.93;8.93;;;;;;;;;;5055168;28;20024;-25
2023/06/12 10:34:42;;;;;;;13.63;8.38;;;;;;;;;;5037364;28;20051;-23
2023/06/12 10:37:28;;;;;;;14.57;8.32;;;;;;;;;;5055292;28;20032;-23
2023/06/12 10:40:10;;;;;;;16.90;8.55;;;;;;;;;;5055163;28;20112;-25
2023/06/12 10:42:47;;;;;;;9.70;8.77;;;;;;;;;;5054894;28;20063;-23
2023/06/12 10:45:27;;;;;;;9.73;8.88;;;;;;;;;;5055286;28;20031;-23
2023/06/12 10:48:06;;;;;;;9.80;8.88;;;;;;;;;;5037282;28;20078;-22
2023/06/12 10:50:36;;;;;;;8.98;8.20;;;;;;;;;;5054938;28;20025;-23
2023/06/12 10:53:03;;;;;;;11.10;9.63;;;;;;;;;;5054895;28;20029;-22
2023/06/12 10:55:29;;;;;;;9.65;8.68;;;;;;;;;;5054583;28;20025;-22
2023/06/12 10:57:57;;;;;;;16.08;9.68;;;;;;;;;;5054961;28;20024;-23
2023/06/12 11:00:24;;;;;;;9.68;8.77;;;;;;;;;;5054511;28;20155;-22
2023/06/12 11:02:57;;;;;;;9.20;8.32;;;;;;;;;;5054233;28;20045;-22
2023/06/12 11:05:24;;;;;;;9.50;8.70;;;;;;;;;;5036998;28;20043;-24
2023/06/12 11:07:50;;;;;;;11.48;8.63;;;;;;;;;;5054776;28;20329;-23
2023/06/12 11:10:17;;;;;;;14.48;9.15;;;;;;;;;;5054474;28;20036;-22
2023/06/12 11:12:47;;;;;;;9.25;8.35;;;;;;;;;;5054245;28;20035;-23
2023/06/12 11:15:13;;;;;;;9.57;8.73;;;;;;;;;;5054679;28;20360;-24
2023/06/12 11:17:39;;;;;;;10.32;9.45;;;;;;;;;;5054469;28;20020;-21
2023/06/12 11:20:06;;;;;;;9.35;8.52;;;;;;;;;;5054245;28;20036;-23
2023/06/12 11:22:32;;;;;;;16.65;8.57;;;;;;;;;;5054269;28;20040;-22
2023/06/12 11:25:05;;;;;;;10.07;9.02;;;;;;;;;;5053550;28;20061;-25
2023/06/12 11:27:31;;;;;;;9.20;8.43;;;;;;;;;;5054696;28;20035;-22
2023/06/12 11:30:06;;;;;;;10.82;8.25;;;;;;;;;;5054201;28;20032;-22
2023/06/12 11:32:32;;;;;;;10.35;9.32;;;;;;;;;;5054228;28;20021;-24
2023/06/12 11:35:01;;;;;;;16.30;10.43;;;;;;;;;;5053921;28;20033;-24
2023/06/12 11:37:27;;;;;;;15.27;8.88;;;;;;;;;;5054073;28;20116;-24
2023/06/12 11:40:23;;;;;;;10.82;8.48;;;;;;;;;;5054050;28;20021;-23
2023/06/12 11:42:49;;;;;;;9.50;8.27;;;;;;;;;;5041419;28;20063;-23
2023/06/12 11:45:16;;;;;;;8.90;8.00;;;;;;;;;;5054172;28;20040;-23
2023/06/12 11:47:43;;;;;;;9.48;8.48;;;;;;;;;;5054514;28;20025;-23
2023/06/12 11:50:10;;;;;;;11.73;9.27;;;;;;;;;;5054357;28;20047;-23
2023/06/12 11:52:37;;;;;;;10.05;9.15;;;;;;;;;;5054153;28;20060;-23
2023/06/12 11:55:08;;;;;;;9.95;8.07;;;;;;;;;;5054036;28;20087;-23
2023/06/12 11:57:35;;;;;;;8.68;7.72;;;;;;;;;;5054585;28;20024;-22
2023/06/12 12:00:12;;;;;;;10.07;8.90;;;;;;;;;;5053942;28;20036;-23
2023/06/12 12:02:39;;;;;;;10.20;9.25;;;;;;;;;;5054014;28;20379;-22
2023/06/12 12:05:08;;;;;;;10.18;9.38;;;;;;;;;;5054493;28;20431;-23
2023/06/12 12:07:38;;;;;;;10.65;8.80;;;;;;;;;;5053859;28;20029;-24
2023/06/12 12:10:11;;;;;;;14.98;9.85;;;;;;;;;;5054139;28;20112;-21
2023/06/12 12:12:44;;;;;;;15.07;10.00;;;;;;;;;;5053986;28;20395;-23
2023/06/12 12:15:14;;;;;;;13.27;9.05;;;;;;;;;;5054379;28;20056;-23
2023/06/12 12:17:41;;;;;;;10.45;9.25;;;;;;;;;;5054105;28;20393;-22
2023/06/12 12:20:13;;;;;;;10.20;9.18;;;;;;;;;;5053990;28;20021;-23
2023/06/12 12:22:43;;;;;;;11.65;9.23;;;;;;;;;;5053959;28;20029;-22
2023/06/12 12:25:14;;;;;;;13.07;9.40;;;;;;;;;;5053728;28;20032;-27
2023/06/12 12:27:40;;;;;;;11.73;10.20;;;;;;;;;;5054025;28;20028;-23
2023/06/12 12:30:07;;;;;;;9.82;9.07;;;;;;;;;;5053558;28;20029;-23
2023/06/12 12:32:33;;;;;;;12.02;9.48;;;;;;;;;;5035870;28;20029;-22
2023/06/12 12:34:59;;;;;;;11.70;10.43;;;;;;;;;;5053551;28;20404;-23
2023/06/12 12:37:26;;;;;;;12.15;9.23;;;;;;;;;;5056770;28;20025;-22
2023/06/12 12:39:52;;;;;;;9.68;8.77;;;;;;;;;;5057107;28;20337;-24
2023/06/12 12:42:19;;;;;;;10.30;8.95;;;;;;;;;;5057354;28;20021;-23
2023/06/12 12:44:45;;;;;;;12.90;9.43;;;;;;;;;;5057875;28;20044;-22
2023/06/12 12:47:11;;;;;;;10.65;8.57;;;;;;;;;;5057335;28;20443;-23
2023/06/12 12:49:37;;;;;;;10.75;9.35;;;;;;;;;;5057266;28;20115;-24
2023/06/12 12:52:05;;;;;;;10.60;9.68;;;;;;;;;;5056877;28;20062;-23
2023/06/12 12:54:31;;;;;;;10.05;9.07;;;;;;;;;;5039521;28;20094;-23
2023/06/12 12:56:58;;;;;;;11.23;9.60;;;;;;;;;;5039844;28;20322;-22
2023/06/12 12:59:25;;;;;;;11.07;9.50;;;;;;;;;;5057011;28;20354;-22
2023/06/12 13:01:51;;;;;;;12.07;9.65;;;;;;;;;;5056962;28;20395;-22
2023/06/12 13:04:17;;;;;;;10.93;9.90;;;;;;;;;;5056740;28;20065;-23
2023/06/12 13:06:44;;;;;;;12.02;9.63;;;;;;;;;;5056515;28;20100;-22
2023/06/12 13:09:10;;;;;;;13.18;8.93;;;;;;;;;;5056807;28;20454;-23
2023/06/12 13:11:36;;;;;;;20.42;10.10;;;;;;;;;;5057515;28;20352;-23
2023/06/12 13:14:03;;;;;;;11.02;9.93;;;;;;;;;;5056329;28;20028;-24
2023/06/12 13:16:29;;;;;;;9.57;8.77;;;;;;;;;;5056328;28;20076;-22
2023/06/12 13:18:55;;;;;;;10.10;9.20;;;;;;;;;;5056150;28;20033;-22
2023/06/12 13:21:21;;;;;;;9.95;9.05;;;;;;;;;;5056455;28;20366;-22
2023/06/12 13:23:47;;;;;;;9.65;8.85;;;;;;;;;;5056010;28;20029;-23
2023/06/12 13:26:14;;;;;;;20.50;9.88;;;;;;;;;;5056572;28;20336;-24
2023/06/12 13:28:40;;;;;;;10.50;8.70;;;;;;;;;;5056105;28;20083;-22
2023/06/12 13:31:06;;;;;;;10.00;9.10;;;;;;;;;;5056174;28;20036;-24
2023/06/12 13:33:32;;;;;;;13.80;9.65;;;;;;;;;;5056045;28;20119;-23
2023/06/12 13:35:58;;;;;;;10.40;9.40;;;;;;;;;;5056060;28;20032;-22
2023/06/12 13:38:25;;;;;;;12.27;9.93;;;;;;;;;;5056012;28;20448;-23
2023/06/12 13:40:51;;;;;;;18.90;9.45;;;;;;;;;;5056014;28;20067;-23
2023/06/12 13:43:17;;;;;;;11.25;10.05;;;;;;;;;;5056013;28;20049;-22
2023/06/12 13:45:43;;;;;;;9.75;8.85;;;;;;;;;;5056231;28;20057;-24
2023/06/12 13:48:09;;;;;;;9.95;8.95;;;;;;;;;;5055521;28;20072;-22
2023/06/12 13:50:35;;;;;;;10.85;9.75;;;;;;;;;;5055832;28;20064;-24
2023/06/12 13:53:01;;;;;;;12.52;9.02;;;;;;;;;;5055656;28;20025;-23
2023/06/12 13:55:28;;;;;;;9.85;9.05;;;;;;;;;;5056084;28;20036;-23
2023/06/12 13:57:57;;;;;;;15.32;10.65;;;;;;;;;;5055846;28;20458;-23
2023/06/12 14:00:26;;;;;;;11.32;9.05;;;;;;;;;;5037795;28;20359;-23
2023/06/12 14:02:52;;;;;;;12.85;9.90;;;;;;;;;;5055458;28;20426;-22
2023/06/12 14:05:20;;;;;;;11.60;9.70;;;;;;;;;;5055726;28;20049;-23
2023/06/12 14:07:46;;;;;;;14.52;10.32;;;;;;;;;;5055315;28;20051;-22
2023/06/12 14:10:13;;;;;;;10.15;9.10;;;;;;;;;;5037809;28;20025;-23
2023/06/12 14:12:39;;;;;;;11.50;9.27;;;;;;;;;;5055194;28;20029;-23
2023/06/12 14:15:06;;;;;;;9.63;8.80;;;;;;;;;;5055372;28;20028;-23
2023/06/12 14:17:32;;;;;;;9.82;8.90;;;;;;;;;;5056281;28;20456;-22
2023/06/12 14:19:59;;;;;;;10.75;9.88;;;;;;;;;;5055119;28;20095;-23
2023/06/12 14:22:25;;;;;;;11.50;10.40;;;;;;;;;;5055198;28;20525;-23
2023/06/12 14:24:51;;;;;;;10.07;9.07;;;;;;;;;;5055066;28;20466;-23
2023/06/12 14:27:17;;;;;;;10.57;9.55;;;;;;;;;;5055167;28;20052;-22
2023/06/12 14:29:43;;;;;;;10.93;9.85;;;;;;;;;;5055234;28;20039;-21
2023/06/12 14:32:10;;;;;;;10.27;9.35;;;;;;;;;;5055053;28;20029;-21
2023/06/12 14:34:36;;;;;;;13.85;9.90;;;;;;;;;;5055110;28;20021;-23
2023/06/12 14:37:03;;;;;;;9.45;8.27;;;;;;;;;;5054984;28;20381;-22
2023/06/12 14:39:29;;;;;;;11.05;9.98;;;;;;;;;;5055117;28;20456;-23
2023/06/12 14:41:55;;;;;;;10.85;9.75;;;;;;;;;;5054816;28;20032;-22